• Join FlightAware (Why Join?)
  • Login
  • US Flag 
08:31AM EDT


 

Airport Tracker/Info


-or-


 

Live Flight TrackerFlight Track Log ✈ EGF5084 ✈ 15-Jul-2013 ✈ KLSE - KORD

Flight Track Log - Related Links

Times and Time Zones

All times are in EDT time to prevent confusion due to time zone crossing. See the EGF5084 flight status page for this flight to view local times or setup timezone preferences in your user account.

Time Position Orientation Groundspeed Altitude Reporting Facility
EDT Latitude Longitude Course Direction KTS MPH feet Rate Location/Type
11:35AM 43.7449 -91.0065 127° Southeast  Level Estimated
11:36AM 43.7112 -90.9442 127° Southeast  Level Estimated
11:37AM 43.6775 -90.8819 127° Southeast  Level Estimated
11:38AM 43.6438 -90.8196 127° Southeast  Level Estimated
11:39AM 43.6100 -90.7575 127° Southeast  Level Estimated
11:40AM 43.5762 -90.6954 127° Southeast  Level Estimated
11:41AM 43.5424 -90.6334 127° Southeast  Level Estimated
11:42AM 43.5085 -90.5715 127° Southeast  Level Estimated
11:43AM 43.4746 -90.5096 127° Southeast  Level Estimated
11:44AM 43.4406 -90.4478 127° Southeast  Level Estimated
11:45AM 43.4067 -90.3861 127° Southeast  Level Estimated
11:46AM 43.3610 -90.3034 127° Southeast  Level Estimated
11:47AM 43.3153 -90.2208 127° Southeast  Level Estimated
11:48AM 43.2696 -90.1383 127° Southeast  Level Estimated
11:49AM 43.2238 -90.0560 127° Southeast  Level Estimated
11:50AM 43.1779 -89.9738 127° Southeast  Level Estimated
11:51AM 43.1320 -89.8917 127° Southeast  Level Estimated
11:52AM 43.0860 -89.8098 128° Southeast  Level Estimated
11:53AM 43.0399 -89.7280 128° Southeast  Level Estimated
11:54AM 42.9938 -89.6462 128° Southeast  Level Estimated
11:55AM 42.9477 -89.5647 128° Southeast  Level Estimated
11:56AM 42.9015 -89.4832 128° Southeast  Level Estimated
11:57AM 42.8552 -89.4018 128° Southeast  Level Estimated
11:58AM 42.8088 -89.3206 128° Southeast  Level Estimated
11:59AM 42.7625 -89.2395 128° Southeast  Level Estimated
12:00PM 42.7160 -89.1585 128° Southeast  Level Estimated
12:01PM 42.6695 -89.0777 128° Southeast  Level Estimated
12:02PM 42.6261 -89.0025 128° Southeast  Level Estimated
12:03PM 42.5827 -88.9273 128° Southeast  Level Estimated
12:04PM 42.5392 -88.8523 128° Southeast  Level Estimated
12:05PM 42.4957 -88.7774 128° Southeast  Level Estimated
12:06PM 42.4521 -88.7026 128° Southeast  Level Estimated
12:07PM 42.4085 -88.6279 128° Southeast  Level Estimated
12:08PM 42.3648 -88.5533 128° Southeast  Level Estimated
12:09PM 42.3210 -88.4788 128° Southeast  Level Estimated
12:10PM 42.2773 -88.4044 128° Southeast  Level Estimated
12:11PM 42.2335 -88.3300 129° Southeast  Level Estimated
12:12PM 42.1896 -88.2559 129° Southeast  Level Estimated